createdAt,value
2018-03-03T00:00:23.116Z,971.99
2018-03-03T00:01:23.348Z,971.98
2018-03-03T00:02:23.580Z,972.02
2018-03-03T00:03:23.812Z,972.05
2018-03-03T00:04:24.045Z,972.04
2018-03-03T00:05:24.265Z,972.03
2018-03-03T00:06:24.499Z,972.00
2018-03-03T00:07:24.724Z,971.99
2018-03-03T00:08:24.954Z,971.97
2018-03-03T00:09:25.183Z,971.97
2018-03-03T00:10:25.413Z,971.94
2018-03-03T00:11:25.648Z,971.95
2018-03-03T00:12:25.882Z,971.99
2018-03-03T00:13:26.106Z,971.98
2018-03-03T00:14:26.344Z,971.94
2018-03-03T00:15:26.570Z,971.91
2018-03-03T00:16:26.808Z,971.94
2018-03-03T00:17:27.041Z,971.97
2018-03-03T00:18:27.268Z,971.94
2018-03-03T00:19:27.499Z,971.97
2018-03-03T00:20:27.728Z,971.93
2018-03-03T00:21:27.969Z,971.92
2018-03-03T00:22:28.202Z,971.91
2018-03-03T00:23:28.428Z,971.92
2018-03-03T00:24:28.659Z,971.92
2018-03-03T00:25:28.889Z,971.91
2018-03-03T00:26:29.134Z,971.87
2018-03-03T00:27:29.363Z,971.88
2018-03-03T00:28:29.588Z,971.89
2018-03-03T00:29:29.821Z,971.85
2018-03-03T00:30:30.052Z,971.81
2018-03-03T00:31:30.281Z,971.83
2018-03-03T00:32:30.510Z,971.85
2018-03-03T00:33:30.739Z,971.82
2018-03-03T00:34:30.963Z,971.82
2018-03-03T00:35:31.197Z,971.81
2018-03-03T00:36:31.426Z,971.80
2018-03-03T00:37:31.663Z,971.80
2018-03-03T00:38:31.894Z,971.82
2018-03-03T00:39:32.122Z,971.77
2018-03-03T00:40:32.352Z,971.73
2018-03-03T00:41:32.583Z,971.72
2018-03-03T00:42:32.813Z,971.70
2018-03-03T00:43:33.047Z,971.69
2018-03-03T00:44:33.271Z,971.68
2018-03-03T00:45:33.497Z,971.66
2018-03-03T00:46:33.731Z,971.69
2018-03-03T00:47:33.961Z,971.69
2018-03-03T00:48:34.197Z,971.67
2018-03-03T00:49:34.427Z,971.66
2018-03-03T00:50:34.655Z,971.71
2018-03-03T00:51:34.885Z,971.69
2018-03-03T00:52:35.115Z,971.74
2018-03-03T00:53:35.345Z,971.74
2018-03-03T00:54:35.574Z,971.74
2018-03-03T00:55:35.806Z,971.76
2018-03-03T00:56:36.028Z,971.79
2018-03-03T00:57:36.299Z,971.81
2018-03-03T00:58:36.497Z,971.82
2018-03-03T00:59:36.730Z,971.80
2018-03-03T01:00:36.960Z,971.80
2018-03-03T01:01:37.189Z,971.79
2018-03-03T01:02:37.420Z,971.79
2018-03-03T01:03:37.650Z,971.80
2018-03-03T01:04:37.879Z,971.78
2018-03-03T01:05:38.109Z,971.77
2018-03-03T01:06:38.336Z,971.77
2018-03-03T01:07:38.568Z,971.78
2018-03-03T01:08:38.798Z,971.78
2018-03-03T01:09:39.027Z,971.75
2018-03-03T01:10:39.263Z,971.79
2018-03-03T01:11:39.492Z,971.72
2018-03-03T01:12:39.720Z,971.72
2018-03-03T01:13:39.950Z,971.72
2018-03-03T01:14:40.179Z,971.67
2018-03-03T01:15:40.408Z,971.67
2018-03-03T01:16:40.638Z,971.72
2018-03-03T01:17:40.868Z,971.71
2018-03-03T01:18:41.102Z,971.73
2018-03-03T01:19:41.318Z,971.71
2018-03-03T01:20:41.547Z,971.69
2018-03-03T01:21:41.776Z,971.71
2018-03-03T01:22:42.016Z,971.71
2018-03-03T01:23:42.242Z,971.66
2018-03-03T01:24:42.470Z,971.70
2018-03-03T01:25:42.695Z,971.69
2018-03-03T01:26:42.925Z,971.67
2018-03-03T01:27:43.154Z,971.68
2018-03-03T01:28:43.384Z,971.67
2018-03-03T01:29:43.613Z,971.64
2018-03-03T01:30:43.844Z,971.63
2018-03-03T01:31:44.067Z,971.64
2018-03-03T01:32:44.296Z,971.60
2018-03-03T01:33:44.524Z,971.61
2018-03-03T01:34:44.754Z,971.63
2018-03-03T01:35:44.984Z,971.59
2018-03-03T01:36:45.213Z,971.54
2018-03-03T01:37:45.442Z,971.54
2018-03-03T01:38:45.673Z,971.52
2018-03-03T01:39:45.901Z,971.55
2018-03-03T01:40:46.130Z,971.53
2018-03-03T01:41:46.362Z,971.54
2018-03-03T01:42:46.586Z,971.51
2018-03-03T01:43:46.817Z,971.52
2018-03-03T01:44:47.053Z,971.55
2018-03-03T01:45:47.285Z,971.55
2018-03-03T01:46:47.516Z,971.56
2018-03-03T01:47:47.751Z,971.57
2018-03-03T01:48:47.975Z,971.61
2018-03-03T01:49:48.205Z,971.60
2018-03-03T01:50:48.434Z,971.59
2018-03-03T01:51:48.663Z,971.65
2018-03-03T01:52:48.892Z,971.63
2018-03-03T01:53:49.116Z,971.69
2018-03-03T01:54:49.349Z,971.66
2018-03-03T01:55:49.578Z,971.65
2018-03-03T01:56:49.810Z,971.68
2018-03-03T01:57:50.036Z,971.67
2018-03-03T01:58:50.267Z,971.66
2018-03-03T01:59:50.490Z,971.65
2018-03-03T02:00:50.724Z,971.67
2018-03-03T02:01:50.954Z,971.68
2018-03-03T02:02:51.189Z,971.65
2018-03-03T02:03:51.418Z,971.66
2018-03-03T02:04:51.650Z,971.65
2018-03-03T02:05:51.870Z,971.62
2018-03-03T02:06:52.100Z,971.66
2018-03-03T02:07:52.329Z,971.63
2018-03-03T02:08:52.563Z,971.65
2018-03-03T02:09:52.792Z,971.62
2018-03-03T02:10:53.021Z,971.60
2018-03-03T02:11:53.246Z,971.58
2018-03-03T02:12:53.475Z,971.62
2018-03-03T02:13:53.708Z,971.61
2018-03-03T02:14:53.938Z,971.60
2018-03-03T02:15:54.166Z,971.58
2018-03-03T02:16:54.399Z,971.56
2018-03-03T02:17:54.634Z,971.55
2018-03-03T02:18:54.857Z,971.56
2018-03-03T02:19:55.095Z,971.56
2018-03-03T02:20:55.323Z,971.55
2018-03-03T02:21:55.554Z,971.57
2018-03-03T02:22:55.777Z,971.58
2018-03-03T02:23:56.007Z,971.54
2018-03-03T02:24:56.237Z,971.54
2018-03-03T02:25:56.468Z,971.56
2018-03-03T02:26:56.697Z,971.56
2018-03-03T02:27:56.932Z,971.56
2018-03-03T02:28:57.152Z,971.57
2018-03-03T02:29:57.381Z,971.59
2018-03-03T02:30:57.612Z,971.59
2018-03-03T02:31:57.841Z,971.57
2018-03-03T02:32:58.071Z,971.56
2018-03-03T02:33:58.299Z,971.61
2018-03-03T02:34:58.523Z,971.57
2018-03-03T02:35:58.756Z,971.57
2018-03-03T02:36:58.990Z,971.57
2018-03-03T02:37:59.216Z,971.53
2018-03-03T02:38:59.449Z,971.52
2018-03-03T02:39:59.674Z,971.48
2018-03-03T02:40:59.907Z,971.53
2018-03-03T02:42:00.136Z,971.47
2018-03-03T02:43:00.372Z,971.50
2018-03-03T02:44:00.598Z,971.48
2018-03-03T02:45:00.834Z,971.49
2018-03-03T02:46:01.071Z,971.46
2018-03-03T02:47:01.274Z,971.46
2018-03-03T02:48:01.502Z,971.46
2018-03-03T02:49:01.733Z,971.46
2018-03-03T02:50:01.961Z,971.44
2018-03-03T02:51:02.191Z,971.45
2018-03-03T02:52:02.420Z,971.45
2018-03-03T02:53:02.650Z,971.48
2018-03-03T02:54:02.881Z,971.49
2018-03-03T02:55:03.111Z,971.50
2018-03-03T02:56:03.339Z,971.47
2018-03-03T02:57:03.558Z,971.47
2018-03-03T02:58:03.788Z,971.47
2018-03-03T02:59:04.021Z,971.42
2018-03-03T03:00:04.278Z,971.43
2018-03-03T03:01:04.508Z,971.40
2018-03-03T03:02:04.738Z,971.40
2018-03-03T03:03:04.962Z,971.38
2018-03-03T03:04:05.192Z,971.40
2018-03-03T03:05:05.425Z,971.37
2018-03-03T03:06:05.653Z,971.35
2018-03-03T03:07:05.880Z,971.38
2018-03-03T03:08:06.108Z,971.36
2018-03-03T03:09:06.334Z,971.37
2018-03-03T03:10:06.561Z,971.37
2018-03-03T03:11:06.793Z,971.33
2018-03-03T03:12:07.028Z,971.37
2018-03-03T03:13:07.251Z,971.37
2018-03-03T03:14:07.482Z,971.38
2018-03-03T03:15:07.696Z,971.36
2018-03-03T03:16:07.937Z,971.35
2018-03-03T03:17:08.163Z,971.35
2018-03-03T03:18:08.401Z,971.33
2018-03-03T03:19:08.624Z,971.36
2018-03-03T03:20:08.855Z,971.36
2018-03-03T03:21:09.072Z,971.35
2018-03-03T03:22:09.311Z,971.36
2018-03-03T03:23:09.540Z,971.33
2018-03-03T03:24:09.769Z,971.33
2018-03-03T03:25:09.998Z,971.34
2018-03-03T03:26:10.227Z,971.32
2018-03-03T03:27:10.457Z,971.33
2018-03-03T03:28:10.686Z,971.34
2018-03-03T03:29:10.916Z,971.31
2018-03-03T03:30:11.153Z,971.28
2018-03-03T03:31:11.376Z,971.28
2018-03-03T03:32:11.600Z,971.26
2018-03-03T03:33:11.834Z,971.24
2018-03-03T03:34:12.070Z,971.28
2018-03-03T03:35:12.284Z,971.28
2018-03-03T03:36:12.521Z,971.28
2018-03-03T03:37:12.747Z,971.29
2018-03-03T03:38:12.972Z,971.30
2018-03-03T03:39:13.207Z,971.31
2018-03-03T03:40:13.434Z,971.27
2018-03-03T03:41:13.672Z,971.29
2018-03-03T03:42:13.901Z,971.25
2018-03-03T03:43:14.121Z,971.27
2018-03-03T03:44:14.344Z,971.29
2018-03-03T03:45:14.578Z,971.29
2018-03-03T03:46:14.809Z,971.27
2018-03-03T03:47:15.045Z,971.25
2018-03-03T03:48:15.274Z,971.26
2018-03-03T03:49:15.495Z,971.29
2018-03-03T03:50:15.733Z,971.29
2018-03-03T03:51:15.970Z,971.30
2018-03-03T03:52:16.211Z,971.29
2018-03-03T03:53:16.438Z,971.29
2018-03-03T03:54:16.665Z,971.27
2018-03-03T03:55:16.900Z,971.28
2018-03-03T03:56:17.130Z,971.28
2018-03-03T03:57:17.366Z,971.28
2018-03-03T03:58:17.595Z,971.26
2018-03-03T03:59:17.828Z,971.24
2018-03-03T04:00:18.045Z,971.27
2018-03-03T04:01:18.279Z,971.23
2018-03-03T04:02:18.508Z,971.21
2018-03-03T04:03:18.740Z,971.19
2018-03-03T04:04:18.973Z,971.16
2018-03-03T04:05:19.198Z,971.17
2018-03-03T04:06:19.423Z,971.13
2018-03-03T04:07:19.656Z,971.11
2018-03-03T04:08:19.881Z,971.10
2018-03-03T04:09:20.112Z,971.13
2018-03-03T04:10:20.345Z,971.09
2018-03-03T04:11:20.570Z,971.08
2018-03-03T04:12:20.801Z,971.05
2018-03-03T04:13:21.029Z,971.04
2018-03-03T04:14:21.259Z,971.01
2018-03-03T04:15:21.488Z,971.03
2018-03-03T04:16:21.723Z,970.99
2018-03-03T04:17:21.942Z,970.94
2018-03-03T04:18:22.173Z,970.94
2018-03-03T04:19:22.389Z,970.88
2018-03-03T04:20:22.618Z,970.95
2018-03-03T04:21:22.856Z,970.89
2018-03-03T04:22:23.086Z,970.85
2018-03-03T04:23:23.315Z,970.84
2018-03-03T04:24:23.540Z,970.83
2018-03-03T04:25:23.770Z,970.75
2018-03-03T04:26:24.003Z,970.79
2018-03-03T04:27:24.229Z,970.75
2018-03-03T04:28:24.458Z,970.76
2018-03-03T04:29:24.687Z,970.71
2018-03-03T04:30:24.920Z,970.72
2018-03-03T04:31:25.146Z,970.75
2018-03-03T04:32:25.375Z,970.71
2018-03-03T04:33:25.605Z,970.73
2018-03-03T04:34:25.834Z,970.67
2018-03-03T04:35:26.061Z,970.69
2018-03-03T04:36:26.293Z,970.68
2018-03-03T04:37:26.523Z,970.66
2018-03-03T04:38:26.760Z,970.68
2018-03-03T04:39:26.990Z,970.66
2018-03-03T04:40:27.220Z,970.65
2018-03-03T04:41:27.437Z,970.64
2018-03-03T04:42:27.686Z,970.63
2018-03-03T04:43:27.892Z,970.60
2018-03-03T04:44:28.131Z,970.62
2018-03-03T04:45:28.348Z,970.59
2018-03-03T04:46:28.578Z,970.56
2018-03-03T04:47:28.804Z,970.53
2018-03-03T04:48:29.037Z,970.56
2018-03-03T04:49:29.266Z,970.53
2018-03-03T04:50:29.493Z,970.55
2018-03-03T04:51:29.722Z,970.52
2018-03-03T04:52:29.951Z,970.51
2018-03-03T04:53:30.180Z,970.50
2018-03-03T04:54:30.412Z,970.51
2018-03-03T04:55:30.640Z,970.49
2018-03-03T04:56:30.877Z,970.52
2018-03-03T04:57:31.107Z,970.53
2018-03-03T04:58:31.336Z,970.50
2018-03-03T04:59:31.561Z,970.48
2018-03-03T05:00:31.790Z,970.47
2018-03-03T05:01:32.021Z,970.52
2018-03-03T05:02:32.252Z,970.54
2018-03-03T05:03:32.481Z,970.52
2018-03-03T05:04:32.710Z,970.54
2018-03-03T05:05:32.945Z,970.54
2018-03-03T05:06:33.169Z,970.50
2018-03-03T05:07:33.402Z,970.51
2018-03-03T05:08:33.630Z,970.47
2018-03-03T05:09:33.858Z,970.46
2018-03-03T05:10:34.090Z,970.49
2018-03-03T05:11:34.318Z,970.47
2018-03-03T05:12:34.546Z,970.43
2018-03-03T05:13:34.783Z,970.48
2018-03-03T05:14:35.013Z,970.47
2018-03-03T05:15:35.242Z,970.47
2018-03-03T05:16:35.465Z,970.43
2018-03-03T05:17:35.694Z,970.43
2018-03-03T05:18:35.929Z,970.44
2018-03-03T05:19:36.157Z,970.44
2018-03-03T05:20:36.386Z,970.40
2018-03-03T05:21:36.614Z,970.41
2018-03-03T05:22:36.844Z,970.39
2018-03-03T05:23:37.071Z,970.37
2018-03-03T05:24:37.304Z,970.37
2018-03-03T05:25:37.533Z,970.35
2018-03-03T05:26:37.763Z,970.37
2018-03-03T05:27:37.991Z,970.36
2018-03-03T05:28:38.221Z,970.35
2018-03-03T05:29:38.453Z,970.40
2018-03-03T05:30:38.689Z,970.38
2018-03-03T05:31:38.917Z,970.38
2018-03-03T05:32:39.148Z,970.38
2018-03-03T05:33:39.371Z,970.40
2018-03-03T05:34:39.601Z,970.37
2018-03-03T05:35:39.829Z,970.32
2018-03-03T05:36:40.063Z,970.36
2018-03-03T05:37:40.296Z,970.36
2018-03-03T05:38:40.520Z,970.36
2018-03-03T05:39:40.751Z,970.37
2018-03-03T05:40:40.982Z,970.34
2018-03-03T05:41:41.211Z,970.35
2018-03-03T05:42:41.439Z,970.36
2018-03-03T05:43:41.672Z,970.34
2018-03-03T05:44:41.894Z,970.28
2018-03-03T05:45:42.129Z,970.34
2018-03-03T05:46:42.359Z,970.31
2018-03-03T05:47:42.598Z,970.32
2018-03-03T05:48:42.824Z,970.31
2018-03-03T05:49:43.052Z,970.27
2018-03-03T05:50:43.280Z,970.27
2018-03-03T05:51:43.510Z,970.30
2018-03-03T05:52:43.741Z,970.28
2018-03-03T05:53:43.968Z,970.26
2018-03-03T05:54:44.200Z,970.28
2018-03-03T05:55:44.426Z,970.28
2018-03-03T05:56:44.660Z,970.23
2018-03-03T05:57:44.891Z,970.27
2018-03-03T05:58:45.127Z,970.27
2018-03-03T05:59:45.357Z,970.25
2018-03-03T06:00:45.586Z,970.24
2018-03-03T06:01:45.817Z,970.27
2018-03-03T06:02:46.054Z,970.27
2018-03-03T06:03:46.289Z,970.23
2018-03-03T06:04:46.519Z,970.28
2018-03-03T06:05:46.751Z,970.27
2018-03-03T06:06:47.006Z,970.27
2018-03-03T06:07:47.213Z,970.28
2018-03-03T06:08:47.437Z,970.29
2018-03-03T06:09:47.664Z,970.27
2018-03-03T06:10:47.897Z,970.26
2018-03-03T06:11:48.122Z,970.28
2018-03-03T06:12:48.354Z,970.29
2018-03-03T06:13:48.583Z,970.31
2018-03-03T06:14:48.821Z,970.30
2018-03-03T06:15:49.050Z,970.32
2018-03-03T06:16:49.279Z,970.28
2018-03-03T06:17:49.511Z,970.30
2018-03-03T06:18:49.741Z,970.30
2018-03-03T06:19:49.974Z,970.29
2018-03-03T06:20:50.200Z,970.30
2018-03-03T06:21:50.430Z,970.32
2018-03-03T06:22:50.659Z,970.33
2018-03-03T06:23:50.890Z,970.33
2018-03-03T06:24:51.118Z,970.34
2018-03-03T06:25:51.355Z,970.32
2018-03-03T06:26:51.585Z,970.31
2018-03-03T06:27:51.813Z,970.31
2018-03-03T06:28:52.044Z,970.33
2018-03-03T06:29:52.285Z,970.35
2018-03-03T06:30:52.515Z,970.34
2018-03-03T06:31:52.754Z,970.37
2018-03-03T06:32:52.973Z,970.37
2018-03-03T06:33:53.203Z,970.39
2018-03-03T06:34:53.433Z,970.36
2018-03-03T06:35:53.671Z,970.41
2018-03-03T06:36:53.894Z,970.41
2018-03-03T06:37:54.124Z,970.39
2018-03-03T06:38:54.350Z,970.36
2018-03-03T06:39:54.587Z,970.34
2018-03-03T06:40:54.810Z,970.35
2018-03-03T06:41:55.047Z,970.37
2018-03-03T06:42:55.280Z,970.41
2018-03-03T06:43:55.506Z,970.39
2018-03-03T06:44:55.732Z,970.39
2018-03-03T06:45:55.960Z,970.44
2018-03-03T06:46:56.189Z,970.42
2018-03-03T06:47:56.420Z,970.41
2018-03-03T06:48:56.651Z,970.45
2018-03-03T06:49:56.880Z,970.45
2018-03-03T06:50:57.104Z,970.45
2018-03-03T06:51:57.333Z,970.45
2018-03-03T06:52:57.563Z,970.43
2018-03-03T06:53:57.798Z,970.41
2018-03-03T06:54:58.023Z,970.41
2018-03-03T06:55:58.250Z,970.40
2018-03-03T06:56:58.481Z,970.41
2018-03-03T06:57:58.710Z,970.39
2018-03-03T06:58:58.953Z,970.39
2018-03-03T06:59:59.168Z,970.39
2018-03-03T07:00:59.396Z,970.38
2018-03-03T07:01:59.623Z,970.35
2018-03-03T07:02:59.853Z,970.36
2018-03-03T07:04:00.084Z,970.36
2018-03-03T07:05:00.310Z,970.35
2018-03-03T07:06:00.542Z,970.38
2018-03-03T07:07:00.773Z,970.37
2018-03-03T07:08:00.998Z,970.35
2018-03-03T07:09:01.232Z,970.40
2018-03-03T07:10:01.463Z,970.41
2018-03-03T07:11:01.698Z,970.39
2018-03-03T07:12:01.928Z,970.38
2018-03-03T07:13:02.157Z,970.37
2018-03-03T07:14:02.389Z,970.41
2018-03-03T07:15:02.619Z,970.36
2018-03-03T07:16:02.857Z,970.36
2018-03-03T07:17:03.089Z,970.35
2018-03-03T07:18:03.317Z,970.36
2018-03-03T07:19:03.546Z,970.36
2018-03-03T07:20:03.777Z,970.35
2018-03-03T07:21:04.007Z,970.37
2018-03-03T07:22:04.238Z,970.37
2018-03-03T07:23:04.465Z,970.34
2018-03-03T07:24:04.694Z,970.34
2018-03-03T07:25:04.927Z,970.33
2018-03-03T07:26:05.156Z,970.41
2018-03-03T07:27:05.392Z,970.40
2018-03-03T07:28:05.621Z,970.42
2018-03-03T07:29:05.926Z,970.43
2018-03-03T07:30:06.080Z,970.43
2018-03-03T07:31:06.310Z,970.44
2018-03-03T07:32:06.540Z,970.45
2018-03-03T07:33:06.774Z,970.45
2018-03-03T07:34:07.001Z,970.43
2018-03-03T07:35:07.231Z,970.41
2018-03-03T07:36:07.463Z,970.43
2018-03-03T07:37:07.689Z,970.39
2018-03-03T07:38:07.923Z,970.43
2018-03-03T07:39:08.165Z,970.41
2018-03-03T07:40:08.383Z,970.41
2018-03-03T07:41:08.610Z,970.44
2018-03-03T07:42:08.825Z,970.42
2018-03-03T07:43:09.056Z,970.41
2018-03-03T07:44:09.282Z,970.44
2018-03-03T07:45:09.512Z,970.43
2018-03-03T07:46:09.741Z,970.43
2018-03-03T07:47:09.968Z,970.41
2018-03-03T07:48:10.201Z,970.37
2018-03-03T07:49:10.428Z,970.39
2018-03-03T07:50:10.670Z,970.39
2018-03-03T07:51:10.898Z,970.37
2018-03-03T07:52:11.128Z,970.40
2018-03-03T07:53:11.359Z,970.37
2018-03-03T07:54:11.590Z,970.41
2018-03-03T07:55:11.820Z,970.45
2018-03-03T07:56:12.050Z,970.42
2018-03-03T07:57:12.286Z,970.39
2018-03-03T07:58:12.502Z,970.40
2018-03-03T07:59:12.736Z,970.39
2018-03-03T08:00:12.965Z,970.42
2018-03-03T08:01:13.201Z,970.43
2018-03-03T08:02:13.431Z,970.42
2018-03-03T08:03:13.664Z,970.44
2018-03-03T08:04:13.885Z,970.43
2018-03-03T08:05:14.118Z,970.45
2018-03-03T08:06:14.348Z,970.43
2018-03-03T08:07:14.576Z,970.43
2018-03-03T08:08:14.805Z,970.42
2018-03-03T08:09:15.034Z,970.43
2018-03-03T08:10:15.265Z,970.42
2018-03-03T08:11:15.493Z,970.41
2018-03-03T08:12:15.723Z,970.38
2018-03-03T08:13:15.953Z,970.39
2018-03-03T08:14:16.184Z,970.33
2018-03-03T08:15:16.410Z,970.39
2018-03-03T08:16:16.641Z,970.36
2018-03-03T08:17:16.870Z,970.34
2018-03-03T08:18:17.128Z,970.37
2018-03-03T08:19:17.355Z,970.32
2018-03-03T08:20:17.571Z,970.35
2018-03-03T08:21:17.807Z,970.33
2018-03-03T08:22:18.029Z,970.34
2018-03-03T08:23:18.267Z,970.32
2018-03-03T08:24:18.497Z,970.35
2018-03-03T08:25:18.727Z,970.33
2018-03-03T08:26:18.945Z,970.33
2018-03-03T08:27:19.180Z,970.35
2018-03-03T08:28:19.410Z,970.36
2018-03-03T08:29:19.641Z,970.34
2018-03-03T08:30:19.894Z,970.34
2018-03-03T08:31:20.099Z,970.35
2018-03-03T08:32:20.323Z,970.34
2018-03-03T08:33:20.554Z,970.32
2018-03-03T08:34:20.781Z,970.37
2018-03-03T08:35:21.014Z,970.37
2018-03-03T08:36:21.246Z,970.36
2018-03-03T08:37:21.479Z,970.36
2018-03-03T08:38:21.705Z,970.36
2018-03-03T08:39:21.935Z,970.37
2018-03-03T08:40:22.186Z,970.42
2018-03-03T08:41:22.409Z,970.38
2018-03-03T08:42:22.637Z,970.42
2018-03-03T08:43:22.865Z,970.41
2018-03-03T08:44:23.093Z,970.41
2018-03-03T08:45:23.333Z,970.38
2018-03-03T08:46:23.564Z,970.42
2018-03-03T08:47:23.793Z,970.40
2018-03-03T08:48:24.024Z,970.39
2018-03-03T08:49:24.254Z,970.41
2018-03-03T08:50:24.486Z,970.41
2018-03-03T08:51:24.786Z,970.42
2018-03-03T08:52:24.943Z,970.39
2018-03-03T08:53:25.170Z,970.40
2018-03-03T08:54:25.418Z,970.39
2018-03-03T08:55:25.630Z,970.38
2018-03-03T08:56:25.867Z,970.38
2018-03-03T08:57:26.097Z,970.38
2018-03-03T08:58:26.325Z,970.39
2018-03-03T08:59:26.560Z,970.37
2018-03-03T09:00:26.778Z,970.38
2018-03-03T09:01:27.007Z,970.37
2018-03-03T09:02:27.241Z,970.35
2018-03-03T09:03:27.471Z,970.34
2018-03-03T09:04:27.727Z,970.37
2018-03-03T09:05:27.928Z,970.38
2018-03-03T09:06:28.159Z,970.36
2018-03-03T09:07:28.391Z,970.38
2018-03-03T09:08:28.619Z,970.36
2018-03-03T09:09:28.849Z,970.34
2018-03-03T09:10:29.075Z,970.39
2018-03-03T09:11:29.305Z,970.37
2018-03-03T09:12:29.535Z,970.40
2018-03-03T09:13:29.772Z,970.35
2018-03-03T09:14:30.002Z,970.37
2018-03-03T09:15:30.283Z,970.38
2018-03-03T09:16:30.458Z,970.36
2018-03-03T09:17:30.687Z,970.36
2018-03-03T09:18:30.917Z,970.36
2018-03-03T09:19:31.146Z,970.32
2018-03-03T09:20:31.375Z,970.34
2018-03-03T09:21:31.604Z,970.36
2018-03-03T09:22:31.836Z,970.33
2018-03-03T09:23:32.065Z,970.37
2018-03-03T09:24:32.294Z,970.35
2018-03-03T09:25:32.583Z,970.32
2018-03-03T09:26:32.757Z,970.36
2018-03-03T09:27:32.981Z,970.31
2018-03-03T09:28:33.257Z,970.31
2018-03-03T09:29:33.444Z,970.32
2018-03-03T09:30:33.680Z,970.30
2018-03-03T09:31:33.909Z,970.32
2018-03-03T09:32:34.137Z,970.34
2018-03-03T09:33:34.368Z,970.36
2018-03-03T09:34:34.600Z,970.34
2018-03-03T09:35:34.837Z,970.36
2018-03-03T09:36:35.068Z,970.35
2018-03-03T09:37:35.303Z,970.38
2018-03-03T09:38:35.522Z,970.36
2018-03-03T09:39:35.758Z,970.39
2018-03-03T09:40:35.982Z,970.37
2018-03-03T09:41:36.216Z,970.42
2018-03-03T09:42:36.447Z,970.41
2018-03-03T09:43:36.674Z,970.37
2018-03-03T09:44:36.908Z,970.39
2018-03-03T09:45:37.136Z,970.39
2018-03-03T09:46:37.379Z,970.32
2018-03-03T09:47:37.609Z,970.36
2018-03-03T09:48:37.835Z,970.37
2018-03-03T09:49:38.066Z,970.35
2018-03-03T09:50:38.295Z,970.32
2018-03-03T09:51:38.533Z,970.36
2018-03-03T09:52:38.763Z,970.33
2018-03-03T09:53:38.993Z,970.34
2018-03-03T09:54:39.217Z,970.32
2018-03-03T09:55:39.447Z,970.32
2018-03-03T09:56:39.676Z,970.32
2018-03-03T09:57:39.907Z,970.34
2018-03-03T09:58:40.137Z,970.34
2018-03-03T09:59:40.364Z,970.36
2018-03-03T10:00:40.595Z,970.32
2018-03-03T10:01:43.360Z,970.38
2018-03-03T10:02:41.060Z,970.34
2018-03-03T10:03:41.284Z,970.33
2018-03-03T10:04:41.513Z,970.34
2018-03-03T10:05:41.739Z,970.32
2018-03-03T10:06:41.972Z,970.36
2018-03-03T10:07:42.202Z,970.37
2018-03-03T10:08:42.440Z,970.35
2018-03-03T10:09:42.666Z,970.36
2018-03-03T10:10:42.899Z,970.36
2018-03-03T10:11:43.133Z,970.36
2018-03-03T10:12:43.366Z,970.35
2018-03-03T10:13:43.599Z,970.35
2018-03-03T10:14:43.829Z,970.36
2018-03-03T10:15:44.057Z,970.33
2018-03-03T10:16:44.289Z,970.38
2018-03-03T10:17:44.520Z,970.36
2018-03-03T10:18:44.759Z,970.36
2018-03-03T10:19:44.989Z,970.38
2018-03-03T10:20:45.221Z,970.37
2018-03-03T10:21:45.439Z,970.39
2018-03-03T10:22:45.676Z,970.39
2018-03-03T10:23:45.906Z,970.39
2018-03-03T10:24:46.136Z,970.38
2018-03-03T10:25:46.369Z,970.36
2018-03-03T10:26:46.592Z,970.38
2018-03-03T10:27:46.824Z,970.36
2018-03-03T10:28:47.053Z,970.36
2018-03-03T10:29:47.291Z,970.34
2018-03-03T10:30:47.526Z,970.34
2018-03-03T10:31:47.809Z,970.36
2018-03-03T10:32:47.982Z,970.35
2018-03-03T10:33:48.210Z,970.34
2018-03-03T10:34:48.440Z,970.36
2018-03-03T10:35:48.670Z,970.36
2018-03-03T10:36:48.902Z,970.34
2018-03-03T10:37:49.131Z,970.38
2018-03-03T10:38:49.361Z,970.39
2018-03-03T10:39:49.617Z,970.40
2018-03-03T10:40:49.826Z,970.42
2018-03-03T10:41:50.059Z,970.40
2018-03-03T10:42:50.283Z,970.38
2018-03-03T10:43:50.515Z,970.40
2018-03-03T10:44:50.745Z,970.42
2018-03-03T10:45:50.975Z,970.43
2018-03-03T10:46:51.205Z,970.44
2018-03-03T10:47:51.435Z,970.41
2018-03-03T10:48:51.660Z,970.44
2018-03-03T10:49:51.892Z,970.43
2018-03-03T10:50:52.123Z,970.40
2018-03-03T10:51:52.359Z,970.42
2018-03-03T10:52:52.588Z,970.40
2018-03-03T10:53:52.820Z,970.43
2018-03-03T10:54:53.054Z,970.42
2018-03-03T10:55:53.279Z,970.40
2018-03-03T10:56:53.518Z,970.41
2018-03-03T10:57:53.747Z,970.39
2018-03-03T10:58:53.980Z,970.42
2018-03-03T10:59:54.202Z,970.42
2018-03-03T11:00:54.432Z,970.42
2018-03-03T11:01:54.662Z,970.44
2018-03-03T11:02:54.892Z,970.41
2018-03-03T11:03:55.120Z,970.42
2018-03-03T11:04:55.350Z,970.39
2018-03-03T11:05:55.582Z,970.40
2018-03-03T11:06:55.815Z,970.38
2018-03-03T11:07:56.041Z,970.43
2018-03-03T11:08:56.272Z,970.37
2018-03-03T11:09:56.503Z,970.38
2018-03-03T11:10:56.728Z,970.41
2018-03-03T11:11:56.959Z,970.40
2018-03-03T11:12:57.188Z,970.39
2018-03-03T11:13:57.425Z,970.37
2018-03-03T11:14:57.655Z,970.39
2018-03-03T11:15:57.885Z,970.38
2018-03-03T11:16:58.110Z,970.39
2018-03-03T11:17:58.340Z,970.37
2018-03-03T11:18:58.571Z,970.40
2018-03-03T11:19:58.800Z,970.40
2018-03-03T11:20:59.032Z,970.38
2018-03-03T11:21:59.259Z,970.41
2018-03-03T11:22:59.498Z,970.45
2018-03-03T11:23:59.724Z,970.41
2018-03-03T11:24:59.960Z,970.43
2018-03-03T11:26:00.190Z,970.42
2018-03-03T11:27:00.415Z,970.43
2018-03-03T11:28:00.639Z,970.43
2018-03-03T11:29:00.870Z,970.42
2018-03-03T11:30:01.100Z,970.42
2018-03-03T11:31:01.330Z,970.37
2018-03-03T11:32:01.558Z,970.39
2018-03-03T11:33:01.789Z,970.43
2018-03-03T11:34:02.011Z,970.43
2018-03-03T11:35:02.241Z,970.45
2018-03-03T11:36:02.471Z,970.44
2018-03-03T11:37:02.705Z,970.42
2018-03-03T11:38:02.930Z,970.43
2018-03-03T11:39:03.161Z,970.44
2018-03-03T11:40:03.386Z,970.48
2018-03-03T11:41:03.621Z,970.46
2018-03-03T11:42:03.849Z,970.44
2018-03-03T11:43:04.079Z,970.45
2018-03-03T11:44:04.308Z,970.46
2018-03-03T11:45:04.534Z,970.45
2018-03-03T11:46:04.769Z,970.43
2018-03-03T11:47:04.998Z,970.42
2018-03-03T11:48:05.234Z,970.43
2018-03-03T11:49:05.466Z,970.43
2018-03-03T11:50:05.694Z,970.46
2018-03-03T11:51:05.926Z,970.45
2018-03-03T11:52:06.156Z,970.44
2018-03-03T11:53:06.394Z,970.43
2018-03-03T11:54:06.625Z,970.43
2018-03-03T11:55:06.854Z,970.45
2018-03-03T11:56:07.080Z,970.45
2018-03-03T11:57:07.313Z,970.43
2018-03-03T11:58:07.540Z,970.41
2018-03-03T11:59:07.767Z,970.46
2018-03-03T12:00:08.001Z,970.47
2018-03-03T12:01:08.230Z,970.49
2018-03-03T12:02:08.462Z,970.48
2018-03-03T12:03:08.691Z,970.52
2018-03-03T12:04:08.926Z,970.48
2018-03-03T12:05:09.158Z,970.54
2018-03-03T12:06:09.388Z,970.49
2018-03-03T12:07:09.613Z,970.52
2018-03-03T12:08:09.842Z,970.54
2018-03-03T12:09:10.073Z,970.55
2018-03-03T12:10:10.301Z,970.54
2018-03-03T12:11:10.538Z,970.54
2018-03-03T12:12:10.759Z,970.52
2018-03-03T12:13:10.997Z,970.57
2018-03-03T12:14:11.225Z,970.52
2018-03-03T12:15:11.462Z,970.50
2018-03-03T12:16:11.692Z,970.51
2018-03-03T12:17:11.921Z,970.52
2018-03-03T12:18:12.155Z,970.50
2018-03-03T12:19:12.383Z,970.50
2018-03-03T12:20:12.622Z,970.52
2018-03-03T12:21:12.852Z,970.53
2018-03-03T12:22:13.117Z,970.56
2018-03-03T12:23:13.307Z,970.54
2018-03-03T12:24:13.537Z,970.55
2018-03-03T12:25:13.766Z,970.52
2018-03-03T12:26:13.997Z,970.51
2018-03-03T12:27:14.229Z,970.53
2018-03-03T12:28:14.454Z,970.54
2018-03-03T12:29:14.687Z,970.50
2018-03-03T12:30:14.917Z,970.48
2018-03-03T12:31:15.155Z,970.48